sensor_id;sensor_type;location;lat;lon;timestamp;P1;durP1;ratioP1;P2;durP2;ratioP2
1000;SDS011;489;47.806;12.858;2024-01-15T00:01:33;10.67;;;6.50;;
1000;SDS011;489;47.806;12.858;2024-01-15T00:03:35;6.90;;;5.57;;
1000;SDS011;489;47.806;12.858;2024-01-15T00:05:37;10.20;;;6.50;;
1000;SDS011;489;47.806;12.858;2024-01-15T00:07:38;8.17;;;6.73;;
1000;SDS011;489;47.806;12.858;2024-01-15T00:09:40;9.57;;;6.47;;
1000;SDS011;489;47.806;12.858;2024-01-15T00:11:42;8.13;;;6.60;;
1000;SDS011;489;47.806;12.858;2024-01-15T00:13:45;7.70;;;6.00;;
1000;SDS011;489;47.806;12.858;2024-01-15T00:15:47;8.40;;;6.10;;
1000;SDS011;489;47.806;12.858;2024-01-15T00:17:49;7.30;;;5.80;;
1000;SDS011;489;47.806;12.858;2024-01-15T00:19:51;8.73;;;5.70;;
1000;SDS011;489;47.806;12.858;2024-01-15T00:21:53;7.33;;;5.83;;
1000;SDS011;489;47.806;12.858;2024-01-15T00:23:55;10.37;;;6.43;;
1000;SDS011;489;47.806;12.858;2024-01-15T00:25:58;9.13;;;6.63;;
1000;SDS011;489;47.806;12.858;2024-01-15T00:27:59;8.33;;;5.77;;
1000;SDS011;489;47.806;12.858;2024-01-15T00:30:03;7.47;;;4.77;;
1000;SDS011;489;47.806;12.858;2024-01-15T00:32:06;4.93;;;3.70;;
1000;SDS011;489;47.806;12.858;2024-01-15T00:34:07;4.20;;;3.67;;
1000;SDS011;489;47.806;12.858;2024-01-15T00:36:08;6.50;;;4.10;;
1000;SDS011;489;47.806;12.858;2024-01-15T00:38:10;5.43;;;3.80;;
1000;SDS011;489;47.806;12.858;2024-01-15T00:40:12;4.70;;;4.30;;
1000;SDS011;489;47.806;12.858;2024-01-15T00:42:14;6.50;;;4.43;;
1000;SDS011;489;47.806;12.858;2024-01-15T00:44:16;6.13;;;4.80;;
1000;SDS011;489;47.806;12.858;2024-01-15T00:46:20;6.80;;;5.13;;
1000;SDS011;489;47.806;12.858;2024-01-15T00:48:20;3.43;;;2.83;;
1000;SDS011;489;47.806;12.858;2024-01-15T00:50:23;4.00;;;2.97;;
1000;SDS011;489;47.806;12.858;2024-01-15T00:52:24;3.03;;;2.40;;
1000;SDS011;489;47.806;12.858;2024-01-15T00:54:26;3.00;;;2.33;;
1000;SDS011;489;47.806;12.858;2024-01-15T00:56:28;2.90;;;2.70;;
1000;SDS011;489;47.806;12.858;2024-01-15T00:58:31;2.83;;;1.90;;
1000;SDS011;489;47.806;12.858;2024-01-15T01:00:32;2.73;;;2.37;;
1000;SDS011;489;47.806;12.858;2024-01-15T01:02:35;2.57;;;2.30;;
1000;SDS011;489;47.806;12.858;2024-01-15T01:04:36;3.67;;;2.90;;
1000;SDS011;489;47.806;12.858;2024-01-15T01:06:38;2.77;;;2.20;;
1000;SDS011;489;47.806;12.858;2024-01-15T01:08:39;3.30;;;2.20;;
1000;SDS011;489;47.806;12.858;2024-01-15T01:10:40;2.83;;;2.00;;
1000;SDS011;489;47.806;12.858;2024-01-15T01:12:43;3.10;;;2.13;;
1000;SDS011;489;47.806;12.858;2024-01-15T01:14:44;2.57;;;2.00;;
1000;SDS011;489;47.806;12.858;2024-01-15T01:16:46;2.77;;;2.47;;
1000;SDS011;489;47.806;12.858;2024-01-15T01:18:50;2.63;;;2.00;;
1000;SDS011;489;47.806;12.858;2024-01-15T01:20:52;2.40;;;2.13;;
1000;SDS011;489;47.806;12.858;2024-01-15T01:22:54;2.83;;;2.07;;
1000;SDS011;489;47.806;12.858;2024-01-15T01:24:55;2.67;;;2.20;;
1000;SDS011;489;47.806;12.858;2024-01-15T01:26:56;1.83;;;1.50;;
1000;SDS011;489;47.806;12.858;2024-01-15T01:28:58;2.53;;;2.00;;
1000;SDS011;489;47.806;12.858;2024-01-15T01:31:00;3.43;;;2.97;;
1000;SDS011;489;47.806;12.858;2024-01-15T01:33:02;2.93;;;2.17;;
1000;SDS011;489;47.806;12.858;2024-01-15T01:35:06;2.83;;;2.00;;
1000;SDS011;489;47.806;12.858;2024-01-15T01:37:08;2.17;;;1.90;;
1000;SDS011;489;47.806;12.858;2024-01-15T01:39:09;2.00;;;1.77;;
1000;SDS011;489;47.806;12.858;2024-01-15T01:41:11;1.63;;;1.53;;
1000;SDS011;489;47.806;12.858;2024-01-15T01:43:13;1.80;;;1.50;;
1000;SDS011;489;47.806;12.858;2024-01-15T01:45:14;3.03;;;2.30;;
1000;SDS011;489;47.806;12.858;2024-01-15T01:47:16;2.37;;;1.87;;
1000;SDS011;489;47.806;12.858;2024-01-15T01:49:18;2.27;;;2.07;;
1000;SDS011;489;47.806;12.858;2024-01-15T01:51:22;2.27;;;2.07;;
1000;SDS011;489;47.806;12.858;2024-01-15T01:53:24;3.00;;;2.27;;
1000;SDS011;489;47.806;12.858;2024-01-15T01:55:27;2.40;;;1.90;;
1000;SDS011;489;47.806;12.858;2024-01-15T01:57:30;2.90;;;2.20;;
1000;SDS011;489;47.806;12.858;2024-01-15T01:59:34;2.30;;;1.60;;
1000;SDS011;489;47.806;12.858;2024-01-15T02:01:36;3.07;;;1.97;;
1000;SDS011;489;47.806;12.858;2024-01-15T02:03:39;2.50;;;2.23;;
1000;SDS011;489;47.806;12.858;2024-01-15T02:05:41;2.53;;;2.00;;
1000;SDS011;489;47.806;12.858;2024-01-15T02:07:44;2.87;;;2.27;;
1000;SDS011;489;47.806;12.858;2024-01-15T02:09:46;3.27;;;2.90;;
1000;SDS011;489;47.806;12.858;2024-01-15T02:11:48;3.23;;;2.93;;
1000;SDS011;489;47.806;12.858;2024-01-15T02:13:50;3.50;;;2.57;;
1000;SDS011;489;47.806;12.858;2024-01-15T02:15:52;2.63;;;2.27;;
1000;SDS011;489;47.806;12.858;2024-01-15T02:17:58;2.53;;;2.33;;
1000;SDS011;489;47.806;12.858;2024-01-15T02:19:59;3.20;;;2.33;;
1000;SDS011;489;47.806;12.858;2024-01-15T02:22:01;2.57;;;2.10;;
1000;SDS011;489;47.806;12.858;2024-01-15T02:24:05;2.40;;;2.20;;
1000;SDS011;489;47.806;12.858;2024-01-15T02:26:07;3.70;;;2.83;;
1000;SDS011;489;47.806;12.858;2024-01-15T02:28:10;3.60;;;2.83;;
1000;SDS011;489;47.806;12.858;2024-01-15T02:30:12;4.30;;;2.93;;
1000;SDS011;489;47.806;12.858;2024-01-15T02:32:14;4.37;;;3.17;;
1000;SDS011;489;47.806;12.858;2024-01-15T02:34:35;4.40;;;3.50;;
1000;SDS011;489;47.806;12.858;2024-01-15T02:36:37;4.57;;;3.57;;
1000;SDS011;489;47.806;12.858;2024-01-15T02:38:39;6.50;;;4.60;;
1000;SDS011;489;47.806;12.858;2024-01-15T02:40:41;5.60;;;4.30;;
1000;SDS011;489;47.806;12.858;2024-01-15T02:42:44;6.17;;;4.60;;
1000;SDS011;489;47.806;12.858;2024-01-15T02:44:47;8.10;;;4.77;;
1000;SDS011;489;47.806;12.858;2024-01-15T02:46:49;7.77;;;5.33;;
1000;SDS011;489;47.806;12.858;2024-01-15T02:48:51;10.07;;;5.57;;
1000;SDS011;489;47.806;12.858;2024-01-15T02:50:53;10.10;;;5.73;;
1000;SDS011;489;47.806;12.858;2024-01-15T02:52:55;7.17;;;5.20;;
1000;SDS011;489;47.806;12.858;2024-01-15T02:54:57;7.23;;;5.10;;
1000;SDS011;489;47.806;12.858;2024-01-15T02:56:59;9.37;;;5.60;;
1000;SDS011;489;47.806;12.858;2024-01-15T02:59:01;6.40;;;4.57;;
1000;SDS011;489;47.806;12.858;2024-01-15T03:01:04;7.40;;;5.10;;
1000;SDS011;489;47.806;12.858;2024-01-15T03:03:05;8.53;;;5.33;;
1000;SDS011;489;47.806;12.858;2024-01-15T03:05:07;8.80;;;5.60;;
1000;SDS011;489;47.806;12.858;2024-01-15T03:07:09;8.40;;;5.57;;
1000;SDS011;489;47.806;12.858;2024-01-15T03:09:11;10.60;;;5.40;;
1000;SDS011;489;47.806;12.858;2024-01-15T03:11:13;10.77;;;6.67;;
1000;SDS011;489;47.806;12.858;2024-01-15T03:13:17;8.17;;;5.33;;
1000;SDS011;489;47.806;12.858;2024-01-15T03:15:19;9.90;;;6.30;;
1000;SDS011;489;47.806;12.858;2024-01-15T03:17:22;8.33;;;5.80;;
1000;SDS011;489;47.806;12.858;2024-01-15T03:19:23;8.00;;;6.17;;
1000;SDS011;489;47.806;12.858;2024-01-15T03:21:25;9.33;;;5.20;;
1000;SDS011;489;47.806;12.858;2024-01-15T03:23:28;8.67;;;5.83;;
1000;SDS011;489;47.806;12.858;2024-01-15T03:25:29;8.83;;;6.00;;
1000;SDS011;489;47.806;12.858;2024-01-15T03:27:32;8.20;;;5.60;;
1000;SDS011;489;47.806;12.858;2024-01-15T03:29:35;8.10;;;5.70;;
1000;SDS011;489;47.806;12.858;2024-01-15T03:31:36;9.77;;;6.07;;
1000;SDS011;489;47.806;12.858;2024-01-15T03:33:38;8.77;;;5.00;;
1000;SDS011;489;47.806;12.858;2024-01-15T03:35:39;8.87;;;6.40;;
1000;SDS011;489;47.806;12.858;2024-01-15T03:37:41;8.80;;;6.30;;
1000;SDS011;489;47.806;12.858;2024-01-15T03:39:43;9.30;;;5.90;;
1000;SDS011;489;47.806;12.858;2024-01-15T03:41:44;7.47;;;5.93;;
1000;SDS011;489;47.806;12.858;2024-01-15T03:43:46;6.70;;;5.47;;
1000;SDS011;489;47.806;12.858;2024-01-15T03:45:49;11.83;;;7.07;;
1000;SDS011;489;47.806;12.858;2024-01-15T03:47:52;10.60;;;5.90;;
1000;SDS011;489;47.806;12.858;2024-01-15T03:49:54;8.57;;;5.77;;
1000;SDS011;489;47.806;12.858;2024-01-15T03:51:54;6.50;;;5.33;;
1000;SDS011;489;47.806;12.858;2024-01-15T03:53:56;6.73;;;4.70;;
1000;SDS011;489;47.806;12.858;2024-01-15T03:55:59;7.00;;;5.37;;
1000;SDS011;489;47.806;12.858;2024-01-15T03:58:01;8.50;;;5.43;;
1000;SDS011;489;47.806;12.858;2024-01-15T04:00:03;7.77;;;5.13;;
1000;SDS011;489;47.806;12.858;2024-01-15T04:02:07;8.20;;;4.83;;
1000;SDS011;489;47.806;12.858;2024-01-15T04:04:09;8.40;;;5.80;;
1000;SDS011;489;47.806;12.858;2024-01-15T04:06:11;8.33;;;5.00;;
1000;SDS011;489;47.806;12.858;2024-01-15T04:08:13;7.63;;;4.80;;
1000;SDS011;489;47.806;12.858;2024-01-15T04:10:14;5.97;;;4.20;;
1000;SDS011;489;47.806;12.858;2024-01-15T04:12:15;6.67;;;4.83;;
1000;SDS011;489;47.806;12.858;2024-01-15T04:14:17;6.90;;;5.00;;
1000;SDS011;489;47.806;12.858;2024-01-15T04:16:19;8.70;;;5.23;;
1000;SDS011;489;47.806;12.858;2024-01-15T04:18:22;7.23;;;5.03;;
1000;SDS011;489;47.806;12.858;2024-01-15T04:20:24;8.00;;;4.50;;
1000;SDS011;489;47.806;12.858;2024-01-15T04:22:26;7.60;;;4.80;;
1000;SDS011;489;47.806;12.858;2024-01-15T04:24:28;6.00;;;3.73;;
1000;SDS011;489;47.806;12.858;2024-01-15T04:26:32;7.37;;;4.30;;
1000;SDS011;489;47.806;12.858;2024-01-15T04:28:34;6.40;;;4.13;;
1000;SDS011;489;47.806;12.858;2024-01-15T04:30:35;5.43;;;3.97;;
1000;SDS011;489;47.806;12.858;2024-01-15T04:32:37;6.80;;;4.73;;
1000;SDS011;489;47.806;12.858;2024-01-15T04:34:41;6.63;;;4.30;;
1000;SDS011;489;47.806;12.858;2024-01-15T04:36:43;6.30;;;4.20;;
1000;SDS011;489;47.806;12.858;2024-01-15T04:38:44;6.10;;;4.10;;
1000;SDS011;489;47.806;12.858;2024-01-15T04:40:45;5.53;;;3.87;;
1000;SDS011;489;47.806;12.858;2024-01-15T04:42:47;5.73;;;3.80;;
1000;SDS011;489;47.806;12.858;2024-01-15T04:44:49;5.80;;;4.47;;
1000;SDS011;489;47.806;12.858;2024-01-15T04:46:50;6.20;;;3.93;;
1000;SDS011;489;47.806;12.858;2024-01-15T04:48:52;5.60;;;4.20;;
1000;SDS011;489;47.806;12.858;2024-01-15T04:50:55;7.00;;;4.30;;
1000;SDS011;489;47.806;12.858;2024-01-15T04:52:57;4.90;;;4.17;;
1000;SDS011;489;47.806;12.858;2024-01-15T04:54:59;5.90;;;3.60;;
1000;SDS011;489;47.806;12.858;2024-01-15T04:57:00;5.30;;;3.90;;
1000;SDS011;489;47.806;12.858;2024-01-15T04:59:02;6.00;;;4.37;;
1000;SDS011;489;47.806;12.858;2024-01-15T05:01:04;6.40;;;3.97;;
1000;SDS011;489;47.806;12.858;2024-01-15T05:03:06;7.30;;;4.10;;
1000;SDS011;489;47.806;12.858;2024-01-15T05:05:08;5.57;;;3.30;;
1000;SDS011;489;47.806;12.858;2024-01-15T05:07:11;6.17;;;3.27;;
1000;SDS011;489;47.806;12.858;2024-01-15T05:09:12;5.57;;;3.33;;
1000;SDS011;489;47.806;12.858;2024-01-15T05:11:14;6.43;;;3.73;;
1000;SDS011;489;47.806;12.858;2024-01-15T05:13:16;5.23;;;3.63;;
1000;SDS011;489;47.806;12.858;2024-01-15T05:15:18;4.30;;;3.10;;
1000;SDS011;489;47.806;12.858;2024-01-15T05:17:20;5.53;;;3.80;;
1000;SDS011;489;47.806;12.858;2024-01-15T05:19:22;5.00;;;3.40;;
1000;SDS011;489;47.806;12.858;2024-01-15T05:21:23;4.83;;;3.30;;
1000;SDS011;489;47.806;12.858;2024-01-15T05:23:26;4.10;;;2.93;;
1000;SDS011;489;47.806;12.858;2024-01-15T05:25:28;6.00;;;3.17;;
1000;SDS011;489;47.806;12.858;2024-01-15T05:27:30;6.77;;;3.13;;
1000;SDS011;489;47.806;12.858;2024-01-15T05:29:32;4.33;;;2.67;;
1000;SDS011;489;47.806;12.858;2024-01-15T05:31:35;3.93;;;2.53;;
1000;SDS011;489;47.806;12.858;2024-01-15T05:33:37;6.40;;;3.37;;
1000;SDS011;489;47.806;12.858;2024-01-15T05:35:38;4.47;;;3.50;;
1000;SDS011;489;47.806;12.858;2024-01-15T05:37:42;3.50;;;2.70;;
1000;SDS011;489;47.806;12.858;2024-01-15T05:39:47;4.63;;;2.87;;
1000;SDS011;489;47.806;12.858;2024-01-15T05:41:48;6.40;;;3.23;;
1000;SDS011;489;47.806;12.858;2024-01-15T05:43:50;4.97;;;2.97;;
1000;SDS011;489;47.806;12.858;2024-01-15T05:45:52;3.97;;;2.50;;
1000;SDS011;489;47.806;12.858;2024-01-15T05:47:54;6.30;;;3.43;;
1000;SDS011;489;47.806;12.858;2024-01-15T05:49:56;4.23;;;2.80;;
1000;SDS011;489;47.806;12.858;2024-01-15T05:51:58;3.40;;;2.80;;
1000;SDS011;489;47.806;12.858;2024-01-15T05:54:00;4.73;;;3.00;;
1000;SDS011;489;47.806;12.858;2024-01-15T05:56:04;3.63;;;2.70;;
1000;SDS011;489;47.806;12.858;2024-01-15T05:58:06;5.83;;;3.10;;
1000;SDS011;489;47.806;12.858;2024-01-15T06:00:08;5.07;;;3.37;;
1000;SDS011;489;47.806;12.858;2024-01-15T06:02:10;4.37;;;2.93;;
1000;SDS011;489;47.806;12.858;2024-01-15T06:04:13;4.00;;;2.53;;
1000;SDS011;489;47.806;12.858;2024-01-15T06:06:14;4.67;;;3.27;;
1000;SDS011;489;47.806;12.858;2024-01-15T06:08:17;3.87;;;2.47;;
1000;SDS011;489;47.806;12.858;2024-01-15T06:10:21;3.83;;;2.90;;
1000;SDS011;489;47.806;12.858;2024-01-15T06:12:24;3.73;;;2.40;;
1000;SDS011;489;47.806;12.858;2024-01-15T06:14:28;4.20;;;2.73;;
1000;SDS011;489;47.806;12.858;2024-01-15T06:16:30;3.17;;;2.37;;
1000;SDS011;489;47.806;12.858;2024-01-15T06:18:32;4.77;;;2.80;;
1000;SDS011;489;47.806;12.858;2024-01-15T06:20:34;3.90;;;2.90;;
1000;SDS011;489;47.806;12.858;2024-01-15T06:22:36;4.07;;;2.97;;
1000;SDS011;489;47.806;12.858;2024-01-15T06:24:39;2.47;;;2.10;;
1000;SDS011;489;47.806;12.858;2024-01-15T06:26:40;4.13;;;2.40;;
1000;SDS011;489;47.806;12.858;2024-01-15T06:28:43;2.97;;;1.80;;
1000;SDS011;489;47.806;12.858;2024-01-15T06:30:45;3.80;;;2.43;;
1000;SDS011;489;47.806;12.858;2024-01-15T06:32:46;5.33;;;2.93;;
1000;SDS011;489;47.806;12.858;2024-01-15T06:34:48;2.70;;;2.27;;
1000;SDS011;489;47.806;12.858;2024-01-15T06:36:50;4.10;;;2.83;;
1000;SDS011;489;47.806;12.858;2024-01-15T06:38:52;3.90;;;2.50;;
1000;SDS011;489;47.806;12.858;2024-01-15T06:40:54;5.37;;;2.80;;
1000;SDS011;489;47.806;12.858;2024-01-15T06:42:55;6.27;;;2.50;;
1000;SDS011;489;47.806;12.858;2024-01-15T06:44:59;3.30;;;2.40;;
1000;SDS011;489;47.806;12.858;2024-01-15T06:47:01;3.07;;;2.57;;
1000;SDS011;489;47.806;12.858;2024-01-15T06:49:03;3.70;;;2.33;;
1000;SDS011;489;47.806;12.858;2024-01-15T06:51:05;2.87;;;2.00;;
1000;SDS011;489;47.806;12.858;2024-01-15T06:53:07;3.20;;;2.43;;
1000;SDS011;489;47.806;12.858;2024-01-15T06:55:09;6.93;;;2.47;;
1000;SDS011;489;47.806;12.858;2024-01-15T06:57:11;3.40;;;2.27;;
1000;SDS011;489;47.806;12.858;2024-01-15T06:59:13;5.40;;;1.90;;
1000;SDS011;489;47.806;12.858;2024-01-15T07:01:16;2.60;;;1.90;;
1000;SDS011;489;47.806;12.858;2024-01-15T07:03:18;3.80;;;2.03;;
1000;SDS011;489;47.806;12.858;2024-01-15T07:05:20;2.20;;;1.53;;
1000;SDS011;489;47.806;12.858;2024-01-15T07:07:22;3.70;;;2.13;;
1000;SDS011;489;47.806;12.858;2024-01-15T07:09:24;2.77;;;1.60;;
1000;SDS011;489;47.806;12.858;2024-01-15T07:11:26;2.40;;;1.50;;
1000;SDS011;489;47.806;12.858;2024-01-15T07:13:28;1.97;;;1.57;;
1000;SDS011;489;47.806;12.858;2024-01-15T07:15:30;2.27;;;1.87;;
1000;SDS011;489;47.806;12.858;2024-01-15T07:17:33;3.23;;;2.00;;
1000;SDS011;489;47.806;12.858;2024-01-15T07:19:35;2.67;;;1.83;;
1000;SDS011;489;47.806;12.858;2024-01-15T07:21:37;2.77;;;1.90;;
1000;SDS011;489;47.806;12.858;2024-01-15T07:23:40;2.73;;;1.50;;
1000;SDS011;489;47.806;12.858;2024-01-15T07:25:42;2.20;;;1.30;;
1000;SDS011;489;47.806;12.858;2024-01-15T07:27:45;1.60;;;1.20;;
1000;SDS011;489;47.806;12.858;2024-01-15T07:30:06;1.80;;;1.57;;
1000;SDS011;489;47.806;12.858;2024-01-15T07:32:09;1.57;;;1.47;;
1000;SDS011;489;47.806;12.858;2024-01-15T07:34:13;2.50;;;1.50;;
1000;SDS011;489;47.806;12.858;2024-01-15T07:36:15;2.40;;;1.33;;
1000;SDS011;489;47.806;12.858;2024-01-15T07:38:16;1.90;;;1.30;;
1000;SDS011;489;47.806;12.858;2024-01-15T07:40:19;2.90;;;1.50;;
1000;SDS011;489;47.806;12.858;2024-01-15T07:42:20;2.00;;;1.30;;
1000;SDS011;489;47.806;12.858;2024-01-15T07:44:22;1.53;;;1.10;;
1000;SDS011;489;47.806;12.858;2024-01-15T07:46:24;1.70;;;1.10;;
1000;SDS011;489;47.806;12.858;2024-01-15T07:48:27;2.30;;;1.50;;
1000;SDS011;489;47.806;12.858;2024-01-15T07:50:30;2.03;;;1.40;;
1000;SDS011;489;47.806;12.858;2024-01-15T07:52:32;2.10;;;1.30;;
1000;SDS011;489;47.806;12.858;2024-01-15T07:54:34;2.07;;;1.87;;
1000;SDS011;489;47.806;12.858;2024-01-15T07:56:41;1.00;;;0.90;;
1000;SDS011;489;47.806;12.858;2024-01-15T07:58:54;1.73;;;1.27;;
1000;SDS011;489;47.806;12.858;2024-01-15T08:00:57;1.90;;;1.70;;
1000;SDS011;489;47.806;12.858;2024-01-15T08:02:58;3.27;;;1.40;;
1000;SDS011;489;47.806;12.858;2024-01-15T08:05:00;2.30;;;1.53;;
1000;SDS011;489;47.806;12.858;2024-01-15T08:07:04;2.27;;;1.53;;
1000;SDS011;489;47.806;12.858;2024-01-15T08:09:07;1.70;;;1.30;;
1000;SDS011;489;47.806;12.858;2024-01-15T08:11:09;2.00;;;1.50;;
1000;SDS011;489;47.806;12.858;2024-01-15T08:13:11;2.50;;;1.80;;
1000;SDS011;489;47.806;12.858;2024-01-15T08:15:13;2.43;;;1.57;;
1000;SDS011;489;47.806;12.858;2024-01-15T08:17:15;3.97;;;1.63;;
1000;SDS011;489;47.806;12.858;2024-01-15T08:19:17;1.97;;;1.40;;
1000;SDS011;489;47.806;12.858;2024-01-15T08:21:20;1.90;;;1.70;;
1000;SDS011;489;47.806;12.858;2024-01-15T08:23:23;2.50;;;1.60;;
1000;SDS011;489;47.806;12.858;2024-01-15T08:25:28;2.40;;;1.90;;
1000;SDS011;489;47.806;12.858;2024-01-15T08:27:30;2.60;;;1.63;;
1000;SDS011;489;47.806;12.858;2024-01-15T08:29:32;1.40;;;1.20;;
1000;SDS011;489;47.806;12.858;2024-01-15T08:31:35;1.33;;;1.13;;
1000;SDS011;489;47.806;12.858;2024-01-15T08:33:37;2.57;;;1.60;;
1000;SDS011;489;47.806;12.858;2024-01-15T08:35:40;3.03;;;1.40;;
1000;SDS011;489;47.806;12.858;2024-01-15T08:37:42;2.00;;;1.80;;
1000;SDS011;489;47.806;12.858;2024-01-15T08:39:45;2.77;;;1.80;;
1000;SDS011;489;47.806;12.858;2024-01-15T08:41:47;2.50;;;1.57;;
1000;SDS011;489;47.806;12.858;2024-01-15T08:43:49;3.33;;;1.53;;
1000;SDS011;489;47.806;12.858;2024-01-15T08:45:50;3.10;;;2.13;;
1000;SDS011;489;47.806;12.858;2024-01-15T08:47:52;2.97;;;1.90;;
1000;SDS011;489;47.806;12.858;2024-01-15T08:49:54;2.47;;;1.80;;
1000;SDS011;489;47.806;12.858;2024-01-15T08:51:56;2.50;;;1.50;;
1000;SDS011;489;47.806;12.858;2024-01-15T08:53:57;3.03;;;2.13;;
1000;SDS011;489;47.806;12.858;2024-01-15T08:56:00;1.90;;;1.60;;
1000;SDS011;489;47.806;12.858;2024-01-15T08:58:03;2.30;;;1.87;;
1000;SDS011;489;47.806;12.858;2024-01-15T09:00:06;2.00;;;1.50;;
1000;SDS011;489;47.806;12.858;2024-01-15T09:02:09;2.30;;;1.77;;
1000;SDS011;489;47.806;12.858;2024-01-15T09:04:11;1.93;;;1.43;;
1000;SDS011;489;47.806;12.858;2024-01-15T09:06:13;1.83;;;1.60;;
1000;SDS011;489;47.806;12.858;2024-01-15T09:08:15;2.80;;;1.67;;
1000;SDS011;489;47.806;12.858;2024-01-15T09:10:17;1.83;;;1.30;;
1000;SDS011;489;47.806;12.858;2024-01-15T09:12:20;1.50;;;1.30;;
1000;SDS011;489;47.806;12.858;2024-01-15T09:14:22;2.67;;;1.90;;
1000;SDS011;489;47.806;12.858;2024-01-15T09:16:27;2.60;;;1.67;;
1000;SDS011;489;47.806;12.858;2024-01-15T09:18:30;2.07;;;1.50;;
1000;SDS011;489;47.806;12.858;2024-01-15T09:20:32;2.50;;;1.80;;
1000;SDS011;489;47.806;12.858;2024-01-15T09:22:34;3.23;;;2.13;;
1000;SDS011;489;47.806;12.858;2024-01-15T09:24:35;2.13;;;1.60;;
1000;SDS011;489;47.806;12.858;2024-01-15T09:26:37;1.83;;;1.63;;
1000;SDS011;489;47.806;12.858;2024-01-15T09:28:40;2.53;;;1.80;;
1000;SDS011;489;47.806;12.858;2024-01-15T09:30:43;2.70;;;2.00;;
1000;SDS011;489;47.806;12.858;2024-01-15T09:32:45;3.47;;;1.80;;
1000;SDS011;489;47.806;12.858;2024-01-15T09:34:47;1.97;;;1.60;;
1000;SDS011;489;47.806;12.858;2024-01-15T09:36:49;4.50;;;1.93;;
1000;SDS011;489;47.806;12.858;2024-01-15T09:38:50;2.60;;;1.73;;
1000;SDS011;489;47.806;12.858;2024-01-15T09:40:52;2.27;;;1.87;;
1000;SDS011;489;47.806;12.858;2024-01-15T09:42:55;2.20;;;2.00;;
1000;SDS011;489;47.806;12.858;2024-01-15T09:44:58;3.50;;;2.70;;
1000;SDS011;489;47.806;12.858;2024-01-15T09:47:00;3.20;;;2.37;;
1000;SDS011;489;47.806;12.858;2024-01-15T09:49:02;4.40;;;2.50;;
1000;SDS011;489;47.806;12.858;2024-01-15T09:51:05;3.47;;;2.30;;
1000;SDS011;489;47.806;12.858;2024-01-15T09:53:08;3.90;;;2.20;;
1000;SDS011;489;47.806;12.858;2024-01-15T09:55:11;3.00;;;2.00;;
1000;SDS011;489;47.806;12.858;2024-01-15T09:57:12;2.80;;;2.03;;
1000;SDS011;489;47.806;12.858;2024-01-15T09:59:14;2.83;;;1.97;;
1000;SDS011;489;47.806;12.858;2024-01-15T10:01:18;8.37;;;4.67;;
1000;SDS011;489;47.806;12.858;2024-01-15T10:03:22;4.37;;;2.57;;
1000;SDS011;489;47.806;12.858;2024-01-15T10:05:24;3.20;;;2.43;;
1000;SDS011;489;47.806;12.858;2024-01-15T10:07:25;3.33;;;2.20;;
1000;SDS011;489;47.806;12.858;2024-01-15T10:09:28;3.50;;;2.50;;
1000;SDS011;489;47.806;12.858;2024-01-15T10:11:31;3.40;;;1.80;;
1000;SDS011;489;47.806;12.858;2024-01-15T10:13:34;3.37;;;2.60;;
1000;SDS011;489;47.806;12.858;2024-01-15T10:15:37;4.03;;;3.10;;
1000;SDS011;489;47.806;12.858;2024-01-15T10:17:41;4.30;;;2.90;;
1000;SDS011;489;47.806;12.858;2024-01-15T10:19:41;6.87;;;3.10;;
1000;SDS011;489;47.806;12.858;2024-01-15T10:21:43;5.37;;;3.00;;
1000;SDS011;489;47.806;12.858;2024-01-15T10:23:47;4.23;;;2.77;;
1000;SDS011;489;47.806;12.858;2024-01-15T10:25:49;4.17;;;2.83;;
1000;SDS011;489;47.806;12.858;2024-01-15T10:27:59;6.07;;;3.63;;
1000;SDS011;489;47.806;12.858;2024-01-15T10:30:01;3.97;;;2.67;;
1000;SDS011;489;47.806;12.858;2024-01-15T10:32:06;2.73;;;2.23;;
1000;SDS011;489;47.806;12.858;2024-01-15T10:34:13;4.13;;;2.73;;
1000;SDS011;489;47.806;12.858;2024-01-15T10:36:16;5.10;;;2.70;;
1000;SDS011;489;47.806;12.858;2024-01-15T10:38:18;3.00;;;2.00;;
1000;SDS011;489;47.806;12.858;2024-01-15T10:40:23;3.07;;;2.20;;
1000;SDS011;489;47.806;12.858;2024-01-15T10:42:25;3.73;;;2.50;;
1000;SDS011;489;47.806;12.858;2024-01-15T10:44:27;3.17;;;2.70;;
1000;SDS011;489;47.806;12.858;2024-01-15T10:46:29;3.33;;;2.53;;
1000;SDS011;489;47.806;12.858;2024-01-15T10:48:31;2.40;;;2.10;;
1000;SDS011;489;47.806;12.858;2024-01-15T10:50:37;3.47;;;2.67;;
1000;SDS011;489;47.806;12.858;2024-01-15T10:52:39;4.87;;;2.97;;
1000;SDS011;489;47.806;12.858;2024-01-15T10:54:42;2.83;;;2.50;;
1000;SDS011;489;47.806;12.858;2024-01-15T10:56:44;5.00;;;2.80;;
1000;SDS011;489;47.806;12.858;2024-01-15T10:58:47;3.20;;;2.57;;
1000;SDS011;489;47.806;12.858;2024-01-15T11:00:49;5.03;;;4.20;;
1000;SDS011;489;47.806;12.858;2024-01-15T11:02:51;3.07;;;1.70;;
1000;SDS011;489;47.806;12.858;2024-01-15T11:04:55;2.20;;;2.00;;
1000;SDS011;489;47.806;12.858;2024-01-15T11:06:58;2.40;;;1.97;;
1000;SDS011;489;47.806;12.858;2024-01-15T11:09:00;2.33;;;1.60;;
1000;SDS011;489;47.806;12.858;2024-01-15T11:11:05;2.80;;;1.77;;
1000;SDS011;489;47.806;12.858;2024-01-15T11:13:08;2.50;;;1.60;;
1000;SDS011;489;47.806;12.858;2024-01-15T11:15:10;1.50;;;1.37;;
1000;SDS011;489;47.806;12.858;2024-01-15T11:17:21;1.80;;;1.60;;
1000;SDS011;489;47.806;12.858;2024-01-15T11:19:23;1.90;;;1.53;;
1000;SDS011;489;47.806;12.858;2024-01-15T11:21:24;3.00;;;2.00;;
1000;SDS011;489;47.806;12.858;2024-01-15T11:23:43;2.40;;;1.80;;
1000;SDS011;489;47.806;12.858;2024-01-15T11:25:46;2.47;;;1.20;;
1000;SDS011;489;47.806;12.858;2024-01-15T11:27:49;3.10;;;1.60;;
1000;SDS011;489;47.806;12.858;2024-01-15T11:30:02;1.60;;;1.37;;
1000;SDS011;489;47.806;12.858;2024-01-15T11:32:26;4.70;;;1.57;;
1000;SDS011;489;47.806;12.858;2024-01-15T11:34:55;2.20;;;1.20;;
1000;SDS011;489;47.806;12.858;2024-01-15T11:37:02;2.00;;;1.43;;
1000;SDS011;489;47.806;12.858;2024-01-15T11:41:41;1.67;;;1.23;;
1000;SDS011;489;47.806;12.858;2024-01-15T11:43:43;2.10;;;1.57;;
1000;SDS011;489;47.806;12.858;2024-01-15T11:45:44;2.40;;;1.60;;
1000;SDS011;489;47.806;12.858;2024-01-15T11:50:13;1.87;;;1.17;;
1000;SDS011;489;47.806;12.858;2024-01-15T11:52:16;2.57;;;1.87;;
1000;SDS011;489;47.806;12.858;2024-01-15T11:54:18;1.87;;;1.20;;
1000;SDS011;489;47.806;12.858;2024-01-15T11:56:21;1.30;;;1.00;;
1000;SDS011;489;47.806;12.858;2024-01-15T11:58:25;1.40;;;1.30;;
1000;SDS011;489;47.806;12.858;2024-01-15T12:00:27;2.23;;;1.30;;
1000;SDS011;489;47.806;12.858;2024-01-15T12:02:28;2.53;;;2.00;;
1000;SDS011;489;47.806;12.858;2024-01-15T12:04:31;2.33;;;1.30;;
1000;SDS011;489;47.806;12.858;2024-01-15T12:06:32;4.70;;;3.33;;
1000;SDS011;489;47.806;12.858;2024-01-15T12:08:34;3.37;;;1.90;;
1000;SDS011;489;47.806;12.858;2024-01-15T12:10:37;3.57;;;2.17;;
1000;SDS011;489;47.806;12.858;2024-01-15T12:12:47;1.90;;;1.80;;
1000;SDS011;489;47.806;12.858;2024-01-15T12:14:57;2.73;;;2.33;;
1000;SDS011;489;47.806;12.858;2024-01-15T12:16:59;3.00;;;1.90;;
1000;SDS011;489;47.806;12.858;2024-01-15T12:19:04;2.43;;;2.10;;
1000;SDS011;489;47.806;12.858;2024-01-15T12:21:07;2.77;;;1.83;;
1000;SDS011;489;47.806;12.858;2024-01-15T12:23:11;3.50;;;2.00;;
1000;SDS011;489;47.806;12.858;2024-01-15T12:25:13;2.43;;;1.90;;
1000;SDS011;489;47.806;12.858;2024-01-15T12:27:15;2.03;;;1.73;;
1000;SDS011;489;47.806;12.858;2024-01-15T12:29:17;2.60;;;1.77;;
1000;SDS011;489;47.806;12.858;2024-01-15T12:31:39;3.80;;;2.30;;
1000;SDS011;489;47.806;12.858;2024-01-15T12:33:41;3.67;;;2.00;;
1000;SDS011;489;47.806;12.858;2024-01-15T12:35:43;4.30;;;2.43;;
1000;SDS011;489;47.806;12.858;2024-01-15T12:37:45;4.63;;;2.40;;
1000;SDS011;489;47.806;12.858;2024-01-15T12:39:47;5.90;;;3.27;;
1000;SDS011;489;47.806;12.858;2024-01-15T12:41:49;3.03;;;2.30;;
1000;SDS011;489;47.806;12.858;2024-01-15T12:43:50;3.40;;;1.80;;
1000;SDS011;489;47.806;12.858;2024-01-15T12:45:52;2.03;;;1.83;;
1000;SDS011;489;47.806;12.858;2024-01-15T12:47:55;2.17;;;1.83;;